Time;durP1;ratioP1;P1;durP2;ratioP2;P2;SDS_P1;SDS_P2;PMS_P1;PMS_P2;Temp;Humidity;BMP_temperature;BMP_pressure;BME280_temperature;BME280_humidity;BME280_pressure;Samples;Min_cycle;Max_cycle;Signal;HPM_P1;HPM_P2
2021/07/11 08:52:09;;;;;;;5.43;3.05;;;;;;;25.12;57.08;98644.56;5087124;28;20054;-65
2021/07/11 08:54:37;;;;;;;3.42;1.70;;;;;;;26.25;54.22;98648.03;5095120;28;20055;-66
2021/07/11 08:57:09;;;;;;;4.07;1.50;;;;;;;26.87;55.02;98649.06;5091596;28;20239;-66
2021/07/11 08:59:36;;;;;;;3.72;1.70;;;;;;;26.96;47.88;98640.19;5108967;28;20042;-66
2021/07/11 09:02:02;;;;;;;1.95;1.30;;;;;;;26.52;51.67;98652.03;5106544;28;20027;-64
2021/07/11 09:04:37;;;;;;;5.00;1.30;;;;;;;26.73;51.92;98646.66;5095351;28;20307;-63
2021/07/11 09:07:04;;;;;;;3.67;1.55;;;;;;;26.20;51.99;98639.47;5090950;28;20031;-63
2021/07/11 09:09:38;;;;;;;2.00;1.23;;;;;;;26.65;52.98;98638.38;5123142;28;20342;-63
2021/07/11 09:12:09;;;;;;;2.78;1.77;;;;;;;27.53;49.69;98634.31;5118815;28;20361;-63
2021/07/11 09:14:40;;;;;;;3.30;1.45;;;;;;;28.58;48.12;98636.41;5097714;28;20021;-63
2021/07/11 09:17:08;;;;;;;6.78;1.50;;;;;;;27.59;47.05;98640.06;5115919;28;20031;-63
2021/07/11 09:19:39;;;;;;;4.97;1.85;;;;;;;26.44;54.24;98650.94;5123465;28;20020;-63
2021/07/11 09:22:06;;;;;;;2.58;1.55;;;;;;;26.98;52.74;98635.50;5093234;28;20032;-63
2021/07/11 09:24:35;;;;;;;4.32;1.73;;;;;;;27.22;52.92;98630.69;5082884;28;20084;-63
2021/07/11 09:27:11;;;;;;;5.80;1.42;;;;;;;26.73;51.33;98643.97;5083969;28;20061;-63
2021/07/11 09:29:38;;;;;;;4.05;1.50;;;;;;;28.06;48.88;98628.56;5094607;28;20028;-65
2021/07/11 09:32:04;;;;;;;2.22;1.58;;;;;;;28.54;45.72;98639.53;5102737;28;20019;-64
2021/07/11 09:34:34;;;;;;;1.75;1.30;;;;;;;28.53;44.74;98632.38;5102561;28;20020;-64
2021/07/11 09:37:13;;;;;;;8.38;1.60;;;;;;;28.99;44.91;98636.09;5092092;28;20052;-64
2021/07/11 09:39:48;;;;;;;3.13;1.30;;;;;;;27.68;49.53;98644.63;5098862;28;20106;-64
2021/07/11 09:45:48;;;;;;;5.32;1.35;;;;;;;26.67;50.50;98644.53;5081864;28;20307;-64
2021/07/11 09:48:14;;;;;;;2.78;1.60;;;;;;;27.24;51.48;98636.88;5096819;28;20020;-64
2021/07/11 09:50:40;;;;;;;5.18;1.55;;;;;;;26.96;49.63;98641.03;5092060;28;20304;-64
2021/07/11 09:53:11;;;;;;;5.93;1.65;;;;;;;27.82;47.07;98630.75;5098982;28;20036;-64
2021/07/11 09:55:37;;;;;;;2.67;1.50;;;;;;;25.95;51.34;98637.03;5089844;28;20016;-65
2021/07/11 09:58:05;;;;;;;3.45;1.48;;;;;;;26.73;53.10;98649.38;5083555;28;20031;-65
2021/07/11 10:00:34;;;;;;;2.35;1.40;;;;;;;27.02;50.95;98640.50;5093533;28;20069;-65
2021/07/11 10:03:10;;;;;;;2.35;1.40;;;;;;;24.58;56.11;98640.69;5095873;28;20020;-64
2021/07/11 10:05:51;;;;;;;1.98;1.55;;;;;;;23.56;57.40;98640.25;5083830;28;20025;-64
2021/07/11 10:08:16;;;;;;;4.82;1.70;;;;;;;23.17;57.41;98637.69;5096735;28;20023;-64
2021/07/11 10:10:42;;;;;;;2.50;1.65;;;;;;;23.22;59.56;98641.75;5100778;28;20031;-64
2021/07/11 10:13:08;;;;;;;3.63;1.70;;;;;;;24.20;56.46;98634.63;5105975;28;20123;-64
2021/07/11 10:15:37;;;;;;;3.80;1.70;;;;;;;25.18;55.97;98630.63;5106161;28;20224;-66
2021/07/11 10:18:06;;;;;;;4.18;1.40;;;;;;;25.09;52.24;98634.03;5097036;28;20246;-67
2021/07/11 10:20:34;;;;;;;6.45;1.83;;;;;;;25.54;54.59;98634.13;5101010;28;20262;-67
2021/07/11 10:23:00;;;;;;;1.77;1.27;;;;;;;24.92;54.71;98639.00;5107156;28;20069;-67
2021/07/11 10:25:28;;;;;;;2.63;1.40;;;;;;;24.07;58.34;98633.81;5107112;28;20028;-67
2021/07/11 10:28:24;;;;;;;3.78;1.70;;;;;;;24.35;58.03;98630.81;5107047;28;20024;-67
2021/07/11 10:30:50;;;;;;;2.80;1.63;;;;;;;25.35;55.53;98628.47;5102793;28;20031;-67
2021/07/11 10:33:22;;;;;;;4.25;1.70;;;;;;;24.56;57.92;98634.59;5106983;28;20365;-67
2021/07/11 10:36:05;;;;;;;2.17;1.50;;;;;;;24.54;56.26;98635.66;5106969;28;20070;-67
2021/07/11 10:38:33;;;;;;;4.65;1.60;;;;;;;24.25;57.11;98635.16;5106797;28;20016;-67
2021/07/11 10:41:31;;;;;;;3.50;1.35;;;;;;;25.08;57.00;98631.44;5106793;28;20024;-67
2021/07/11 10:44:09;;;;;;;1.70;1.45;;;;;;;25.00;55.77;98629.34;5102641;28;20036;-67
2021/07/11 10:46:37;;;;;;;2.25;1.85;;;;;;;24.61;56.22;98631.50;5106688;28;20031;-67
2021/07/11 10:49:08;;;;;;;4.28;1.40;;;;;;;23.80;59.00;98632.25;5106641;28;20235;-67
2021/07/11 10:52:06;;;;;;;2.85;1.75;;;;;;;24.12;57.89;98626.28;5106433;28;20044;-67
2021/07/11 10:54:37;;;;;;;2.50;1.88;;;;;;;24.34;58.64;98623.72;5105375;28;20040;-67
2021/07/11 10:57:11;;;;;;;3.00;1.55;;;;;;;24.71;52.20;98609.19;5106437;28;20196;-67
2021/07/11 10:59:43;;;;;;;4.47;1.90;;;;;;;24.14;55.51;98627.00;5106483;28;20065;-67
2021/07/11 11:02:22;;;;;;;4.30;1.75;;;;;;;24.37;56.80;98618.13;5106371;28;20016;-67
2021/07/11 11:05:11;;;;;;;3.15;1.52;;;;;;;24.90;56.60;98616.75;5106358;28;20311;-67
2021/07/11 11:07:46;;;;;;;2.70;1.20;;;;;;;25.31;53.45;98614.38;5106342;28;20315;-67
2021/07/11 11:10:20;;;;;;;5.53;2.33;;;;;;;25.57;51.24;98613.19;5106255;28;20248;-67
2021/07/11 11:12:57;;;;;;;5.68;2.10;;;;;;;25.75;51.76;98613.53;5106179;28;20025;-67
2021/07/11 11:15:36;;;;;;;5.47;1.88;;;;;;;26.80;51.18;98604.69;5104556;28;20016;-67
2021/07/11 11:18:33;;;;;;;8.07;2.63;;;;;;;26.56;52.55;98607.59;5105273;28;20047;-67
2021/07/11 11:20:59;;;;;;;2.40;1.48;;;;;;;26.87;49.70;98605.84;5093904;28;20039;-67
2021/07/11 11:23:26;;;;;;;3.03;1.70;;;;;;;27.16;49.82;98604.19;5106032;28;20051;-67
2021/07/11 11:25:52;;;;;;;3.45;1.65;;;;;;;26.55;52.99;98610.41;5105941;28;20024;-67
2021/07/11 11:28:51;;;;;;;5.45;1.70;;;;;;;25.76;51.40;98608.03;5105877;28;20054;-67
2021/07/11 11:31:32;;;;;;;2.45;1.60;;;;;;;26.48;50.99;98606.50;5094011;28;20035;-67
2021/07/11 11:34:08;;;;;;;3.45;1.40;;;;;;;26.25;51.61;98607.56;5105880;28;20040;-67
2021/07/11 11:36:43;;;;;;;2.80;1.52;;;;;;;25.80;52.56;98611.31;5105729;28;20027;-67
2021/07/11 11:39:24;;;;;;;1.83;1.25;;;;;;;25.49;53.52;98606.66;5105671;28;20211;-67
2021/07/11 11:41:49;;;;;;;4.40;1.40;;;;;;;24.75;52.76;98597.25;5105535;28;20024;-67
2021/07/11 11:44:15;;;;;;;3.72;1.60;;;;;;;24.87;52.64;98607.03;5105543;28;20070;-67
2021/07/11 11:46:43;;;;;;;2.80;1.60;;;;;;;24.84;53.54;98609.97;5105524;28;20058;-67
2021/07/11 11:49:12;;;;;;;2.10;1.08;;;;;;;24.78;54.57;98612.28;5105441;28;20024;-67
2021/07/11 11:51:46;;;;;;;6.07;1.50;;;;;;;24.44;58.75;98616.66;5105284;28;20044;-67
2021/07/11 11:54:20;;;;;;;2.95;1.55;;;;;;;24.27;57.76;98617.06;5105390;28;20023;-67
2021/07/11 11:56:45;;;;;;;7.40;1.80;;;;;;;24.42;59.29;98612.38;5105298;28;20085;-67
2021/07/11 11:59:11;;;;;;;1.75;1.35;;;;;;;24.17;57.81;98610.66;5105247;28;20024;-67
2021/07/11 12:01:36;;;;;;;3.00;1.40;;;;;;;24.45;58.58;98604.91;5105225;28;20070;-67
2021/07/11 12:04:14;;;;;;;4.60;1.70;;;;;;;24.11;59.16;98605.72;5105206;28;20219;-67
2021/07/11 12:06:42;;;;;;;2.80;1.60;;;;;;;23.99;59.58;98606.66;5105135;28;20341;-67
2021/07/11 12:09:10;;;;;;;4.72;1.63;;;;;;;24.25;59.35;98608.25;5105330;28;20238;-67
2021/07/11 12:11:36;;;;;;;3.63;1.60;;;;;;;24.26;58.25;98601.91;5105311;28;20043;-67
2021/07/11 12:14:16;;;;;;;4.53;1.60;;;;;;;24.38;56.97;98603.69;5105020;28;20019;-67
2021/07/11 12:16:42;;;;;;;3.05;1.52;;;;;;;24.44;56.50;98602.34;5104989;28;20016;-67
2021/07/11 12:19:09;;;;;;;4.55;1.95;;;;;;;24.43;56.53;98601.47;5104835;28;20012;-67
2021/07/11 12:21:45;;;;;;;4.43;1.75;;;;;;;24.37;58.73;98599.28;5104899;28;20024;-67
2021/07/11 12:24:14;;;;;;;2.92;1.70;;;;;;;24.17;59.07;98604.44;5104887;28;20028;-67
2021/07/11 12:26:54;;;;;;;5.63;1.50;;;;;;;24.06;58.81;98596.28;5104787;28;20091;-67
2021/07/11 12:29:28;;;;;;;3.40;1.38;;;;;;;23.92;59.04;98599.94;5104752;28;20016;-67
2021/07/11 12:32:02;;;;;;;3.83;1.60;;;;;;;23.98;60.21;98594.16;5104974;28;20211;-67
2021/07/11 12:34:28;;;;;;;6.28;1.48;;;;;;;24.05;59.76;98595.44;5104649;28;20395;-67
2021/07/11 12:36:57;;;;;;;1.98;1.70;;;;;;;23.94;62.32;98595.38;5085112;28;20021;-67
2021/07/11 12:39:24;;;;;;;2.10;1.40;;;;;;;24.18;57.62;98596.25;5084247;28;20065;-67
2021/07/11 12:41:52;;;;;;;3.03;1.48;;;;;;;24.29;58.98;98593.59;5084439;28;20214;-67
2021/07/11 12:44:18;;;;;;;4.45;1.55;;;;;;;24.02;59.71;98595.69;5084254;28;20066;-67
2021/07/11 12:46:45;;;;;;;1.85;1.40;;;;;;;24.19;56.78;98587.19;5084457;28;20070;-67
2021/07/11 12:49:17;;;;;;;3.58;1.45;;;;;;;24.50;59.91;98583.91;5084120;28;20020;-67
2021/07/11 12:51:49;;;;;;;2.10;1.35;;;;;;;24.59;59.11;98591.28;5083955;28;20232;-67
2021/07/11 12:54:14;;;;;;;2.55;1.63;;;;;;;24.39;56.94;98583.84;5084070;28;20047;-67
2021/07/11 12:56:51;;;;;;;3.17;1.23;;;;;;;24.50;54.58;98578.53;5084036;28;20020;-67
2021/07/11 12:59:26;;;;;;;3.03;1.30;;;;;;;24.51;50.04;98577.56;5097027;28;20020;-67
2021/07/11 13:02:08;;;;;;;1.80;1.27;;;;;;;24.35;51.83;98577.00;5089049;28;20026;-67
2021/07/11 13:04:35;;;;;;;3.55;1.33;;;;;;;23.80;53.04;103764.91;5092150;28;20070;-67
2021/07/11 13:07:04;;;;;;;1.45;1.20;;;;;;;23.90;56.60;99314.44;5091544;28;20062;-67
2021/07/11 13:09:29;;;;;;;3.50;1.30;;;;;;;24.30;55.80;100104.84;5092403;28;20051;-67
2021/07/11 13:11:55;;;;;;;1.50;1.27;;;;;;;24.59;57.57;99789.19;5103740;28;20219;-67
2021/07/11 13:14:22;;;;;;;3.60;1.08;;;;;;;24.73;54.71;99977.78;5103445;28;20222;-67
2021/07/11 13:16:47;;;;;;;1.83;1.38;;;;;;;24.65;57.01;106893.88;5099508;28;20080;-67
2021/07/11 13:19:13;;;;;;;1.23;1.10;;;;;;;24.39;54.40;104723.81;5088735;28;20028;-67
2021/07/11 13:21:38;;;;;;;3.38;1.30;;;;;;;24.02;55.37;104658.41;5103901;28;20153;-67
2021/07/11 13:24:04;;;;;;;3.58;0.90;;;;;;;23.95;56.90;103329.75;5104034;28;20020;-67
2021/07/11 13:26:29;;;;;;;1.20;1.00;;;;;;;23.66;55.44;102696.44;5083864;28;20053;-67
2021/07/11 13:28:54;;;;;;;1.00;0.90;;;;;;;23.80;58.66;102035.25;5083812;28;20008;-67
2021/07/11 13:31:26;;;;;;;2.20;1.00;;;;;;;23.72;54.94;101442.66;5102631;28;20024;-67
2021/07/11 13:33:52;;;;;;;1.75;1.23;;;;;;;23.43;57.03;101275.00;5103545;28;20051;-67
2021/07/11 13:36:17;;;;;;;1.73;0.95;;;;;;;23.58;56.28;101278.13;5103130;28;20027;-67
2021/07/11 13:38:43;;;;;;;1.90;1.17;;;;;;;23.60;54.64;101166.00;5093054;28;20118;-67
2021/07/11 13:41:08;;;;;;;1.00;0.90;;;;;;;23.65;55.88;101079.78;5087022;28;20029;-67
2021/07/11 13:43:34;;;;;;;1.38;1.17;;;;;;;23.65;59.31;101032.28;5087557;28;20031;-67
2021/07/11 13:45:59;;;;;;;2.03;0.95;;;;;;;23.66;56.02;100960.56;5106177;28;20067;-67
2021/07/11 13:48:24;;;;;;;1.27;1.17;;;;;;;23.65;55.14;100910.38;5087981;28;20365;-67
2021/07/11 13:50:50;;;;;;;1.70;1.17;;;;;;;23.59;55.70;100844.25;5087292;28;20091;-67
2021/07/11 13:53:19;;;;;;;1.13;1.02;;;;;;;23.30;57.29;100736.94;5087421;28;20054;-67
2021/07/11 13:55:44;;;;;;;3.33;1.33;;;;;;;23.62;58.15;100763.47;5103635;28;20023;-67
2021/07/11 13:58:09;;;;;;;2.45;1.40;;;;;;;23.36;57.26;100687.44;5106577;28;20039;-67
2021/07/11 14:00:36;;;;;;;3.42;1.70;;;;;;;23.25;61.13;100644.84;5107078;28;20062;-67
2021/07/11 14:03:01;;;;;;;1.92;1.30;;;;;;;23.42;58.39;100610.16;5107015;28;20244;-67
2021/07/11 14:05:27;;;;;;;1.98;1.00;;;;;;;23.51;58.79;100582.91;5107214;28;20031;-67
2021/07/11 14:07:52;;;;;;;3.00;1.33;;;;;;;23.23;59.89;100520.47;5089955;28;20282;-67
2021/07/11 14:10:18;;;;;;;1.80;1.20;;;;;;;23.37;57.62;100456.25;5106879;28;20246;-67
2021/07/11 14:12:43;;;;;;;1.92;1.23;;;;;;;23.37;58.18;100439.22;5106843;28;20051;-67
2021/07/11 14:15:10;;;;;;;4.20;1.30;;;;;;;23.44;57.63;100390.53;5106814;28;20381;-67
2021/07/11 14:17:36;;;;;;;3.70;1.20;;;;;;;23.59;55.75;100360.28;5095983;28;20024;-67
2021/07/11 14:20:03;;;;;;;2.55;1.35;;;;;;;23.63;57.14;100337.69;5086960;28;20032;-67
2021/07/11 14:22:28;;;;;;;1.55;1.10;;;;;;;23.49;58.61;100297.13;5086906;28;20020;-67
2021/07/11 14:24:54;;;;;;;4.40;1.33;;;;;;;23.54;55.50;100260.13;5086831;28;20092;-67
2021/07/11 14:27:19;;;;;;;1.40;1.20;;;;;;;23.31;55.23;100214.63;5092012;28;20082;-67
2021/07/11 14:29:45;;;;;;;2.22;1.50;;;;;;;23.42;55.33;100196.22;5106293;28;20015;-67
2021/07/11 14:32:10;;;;;;;2.08;1.17;;;;;;;23.21;53.82;100175.66;5106494;28;20050;-67
2021/07/11 14:34:35;;;;;;;2.40;1.45;;;;;;;23.05;53.72;100142.41;5095539;28;20085;-67
2021/07/11 14:37:01;;;;;;;2.78;1.02;;;;;;;23.25;53.98;100113.69;5094364;28;20015;-67
2021/07/11 14:39:27;;;;;;;1.90;1.02;;;;;;;23.33;54.95;100133.94;5095421;28;20024;-67
2021/07/11 14:41:53;;;;;;;3.10;1.08;;;;;;;23.11;54.90;100069.59;5090742;28;20028;-67
2021/07/11 14:44:18;;;;;;;1.25;1.15;;;;;;;23.21;56.03;100069.09;5086442;28;20059;-67
2021/07/11 14:46:44;;;;;;;2.00;1.10;;;;;;;23.11;54.78;100131.38;5106791;28;20025;-67
2021/07/11 14:49:10;;;;;;;2.10;1.10;;;;;;;23.11;61.04;100115.25;5106623;28;20024;-67
2021/07/11 14:51:35;;;;;;;2.13;1.02;;;;;;;23.21;61.21;100082.53;5105248;28;20327;-67
2021/07/11 14:54:00;;;;;;;3.92;1.40;;;;;;;23.40;62.24;100052.97;5106442;28;20027;-67
2021/07/11 14:56:26;;;;;;;3.35;1.27;;;;;;;23.44;62.82;100035.75;5106517;28;20043;-67
2021/07/11 14:58:52;;;;;;;1.52;1.25;;;;;;;23.42;63.26;100012.59;5097791;28;20023;-67
2021/07/11 15:01:17;;;;;;;3.15;1.17;;;;;;;23.27;59.06;99885.25;5096471;28;20371;-67
2021/07/11 15:03:43;;;;;;;1.23;1.00;;;;;;;23.07;54.66;99877.28;5104713;28;20070;-67
2021/07/11 15:06:08;;;;;;;0.95;0.95;;;;;;;23.13;55.23;99871.63;5106007;28;20020;-67
2021/07/11 15:08:34;;;;;;;1.40;1.17;;;;;;;23.30;54.99;99863.59;5100803;28;20020;-67
2021/07/11 15:10:59;;;;;;;5.20;1.25;;;;;;;23.12;54.87;99848.38;5088939;28;20032;-67
2021/07/11 15:13:25;;;;;;;2.40;1.33;;;;;;;23.24;58.36;99842.41;5104585;28;20271;-67
2021/07/11 15:15:51;;;;;;;2.05;1.30;;;;;;;23.37;57.92;99787.09;5106344;28;20020;-67
2021/07/11 15:18:17;;;;;;;1.75;0.90;;;;;;;23.35;55.88;99754.06;5105412;28;20016;-66
2021/07/11 15:20:44;;;;;;;3.15;1.35;;;;;;;23.48;57.48;99765.91;5106062;28;20024;-67
2021/07/11 15:23:10;;;;;;;2.65;1.20;;;;;;;23.22;57.93;99731.44;5105395;28;20031;-67
2021/07/11 15:25:36;;;;;;;3.25;1.20;;;;;;;23.15;55.64;99720.16;5105960;28;20087;-67
2021/07/11 15:28:02;;;;;;;2.13;1.20;;;;;;;23.00;56.67;99709.38;5105880;28;20075;-67
2021/07/11 15:30:28;;;;;;;2.90;1.30;;;;;;;22.94;56.88;99693.56;5105831;28;20027;-67
2021/07/11 15:32:53;;;;;;;3.63;1.20;;;;;;;23.05;56.04;99669.69;5105817;28;20028;-66
2021/07/11 15:35:18;;;;;;;1.85;1.27;;;;;;;22.91;59.32;99680.31;5105797;28;20200;-66
2021/07/11 15:37:45;;;;;;;2.40;1.38;;;;;;;22.93;57.74;99988.06;5105647;28;20020;-66
2021/07/11 15:40:12;;;;;;;8.73;1.30;;;;;;;22.69;57.57;99864.91;5105624;28;20027;-67
2021/07/11 15:42:39;;;;;;;1.38;1.17;;;;;;;22.59;56.48;99831.41;5105583;28;20024;-67
2021/07/11 15:45:05;;;;;;;1.42;1.17;;;;;;;22.64;55.97;99781.91;5105569;28;20327;-67
2021/07/11 15:47:31;;;;;;;3.22;1.10;;;;;;;22.64;57.59;99732.72;5105509;28;20024;-67
2021/07/11 15:49:56;;;;;;;3.53;1.27;;;;;;;22.55;58.22;99658.03;5105320;28;20065;-67
2021/07/11 15:52:21;;;;;;;2.35;1.30;;;;;;;22.68;58.53;99660.00;5105222;28;20331;-67
2021/07/11 15:54:47;;;;;;;2.40;0.90;;;;;;;22.59;58.16;99647.06;5105393;28;20065;-67
2021/07/11 15:57:12;;;;;;;1.33;1.00;;;;;;;22.36;57.65;99604.44;5105298;28;20083;-67
2021/07/11 15:59:38;;;;;;;2.03;1.40;;;;;;;22.25;58.33;99557.66;5105310;28;20028;-67
2021/07/11 16:02:04;;;;;;;1.27;1.13;;;;;;;22.46;58.57;99572.66;5103873;28;20316;-68
2021/07/11 16:04:29;;;;;;;1.33;1.10;;;;;;;22.47;58.54;99552.91;5105198;28;20051;-67
2021/07/11 16:06:55;;;;;;;2.55;1.08;;;;;;;22.41;59.16;100422.56;5105226;28;20311;-67
2021/07/11 16:09:20;;;;;;;4.85;1.58;;;;;;;22.44;58.41;100245.34;5105122;28;20366;-67
2021/07/11 16:11:46;;;;;;;5.18;1.25;;;;;;;22.46;58.13;100141.50;5105093;28;20242;-67
2021/07/11 16:14:11;;;;;;;1.75;1.15;;;;;;;22.54;57.56;99943.47;5105050;28;20341;-67
2021/07/11 16:16:39;;;;;;;2.13;1.27;;;;;;;22.53;57.81;99874.63;5104997;28;20055;-67
2021/07/11 16:19:04;;;;;;;2.25;1.50;;;;;;;22.44;58.33;99816.00;5104893;28;20407;-67
2021/07/11 16:21:30;;;;;;;2.15;1.27;;;;;;;22.46;56.66;99814.13;5104901;28;20036;-67
2021/07/11 16:23:55;;;;;;;1.23;0.90;;;;;;;22.37;56.86;99756.41;5104923;28;20074;-67
2021/07/11 16:26:21;;;;;;;1.95;1.10;;;;;;;22.24;57.40;99685.53;5089223;28;20086;-67
2021/07/11 16:28:46;;;;;;;2.53;1.20;;;;;;;22.38;57.01;99666.06;5084485;28;20031;-67
2021/07/11 16:31:12;;;;;;;2.15;1.33;;;;;;;22.32;58.82;99591.25;5084434;28;20031;-67
2021/07/11 16:33:38;;;;;;;1.95;1.17;;;;;;;22.21;57.62;99588.28;5083255;28;20087;-67
2021/07/11 16:36:03;;;;;;;1.90;1.00;;;;;;;22.13;57.00;99579.72;5084413;28;20031;-67
2021/07/11 16:38:31;;;;;;;3.53;1.45;;;;;;;22.15;58.61;99570.66;5084254;28;20084;-67
2021/07/11 16:41:00;;;;;;;2.28;1.10;;;;;;;22.19;56.91;99590.16;5084259;28;20025;-67
2021/07/11 16:43:27;;;;;;;1.67;1.15;;;;;;;22.16;59.20;99646.63;5084182;28;20052;-67
2021/07/11 16:45:54;;;;;;;2.05;1.17;;;;;;;22.18;58.80;99904.91;5084234;28;20028;-67
2021/07/11 16:48:19;;;;;;;1.00;0.90;;;;;;;22.07;56.74;99826.75;5084171;28;20028;-68
2021/07/11 16:50:44;;;;;;;3.17;1.27;;;;;;;22.10;60.47;99778.31;5083993;28;20028;-68
2021/07/11 16:53:10;;;;;;;1.35;1.17;;;;;;;22.16;58.38;99724.41;5104389;28;20031;-68
2021/07/11 16:55:36;;;;;;;1.85;1.20;;;;;;;22.10;59.40;99558.44;5104436;28;20417;-68
2021/07/11 16:58:02;;;;;;;2.75;1.10;;;;;;;22.18;57.97;99470.41;5104297;28;20027;-68
2021/07/11 17:00:27;;;;;;;3.75;1.10;;;;;;;22.11;59.53;99474.38;5104277;28;20107;-68
2021/07/11 17:02:53;;;;;;;1.45;1.10;;;;;;;21.97;60.28;99450.97;5104297;28;20019;-68
2021/07/11 17:05:18;;;;;;;1.45;1.10;;;;;;;22.03;59.11;99406.88;5104263;28;20047;-67
2021/07/11 17:07:44;;;;;;;1.85;0.90;;;;;;;22.03;59.13;99390.78;5104207;28;20065;-67
2021/07/11 17:10:13;;;;;;;2.70;1.05;;;;;;;22.00;59.59;99348.94;5104187;28;20027;-67
2021/07/11 17:12:38;;;;;;;3.15;1.10;;;;;;;22.06;58.53;99353.97;5104156;28;20024;-67
2021/07/11 17:15:07;;;;;;;2.17;1.25;;;;;;;21.97;59.01;99337.50;5103472;28;20028;-67
2021/07/11 17:17:32;;;;;;;2.40;1.20;;;;;;;22.01;58.57;99339.91;5098986;28;20020;-67
2021/07/11 17:19:58;;;;;;;3.20;1.27;;;;;;;21.97;58.36;99326.75;5083853;28;20096;-67
2021/07/11 17:22:25;;;;;;;1.65;1.15;;;;;;;21.89;58.05;99320.97;5084082;28;20027;-67
2021/07/11 17:24:53;;;;;;;2.72;1.35;;;;;;;21.86;59.28;99321.13;5082635;28;20025;-67
2021/07/11 17:27:19;;;;;;;2.88;0.98;;;;;;;21.76;59.28;99309.19;5083792;28;20024;-67
2021/07/11 17:29:45;;;;;;;2.55;1.20;;;;;;;21.84;59.13;99301.56;5083742;28;20241;-67
2021/07/11 17:32:11;;;;;;;3.30;1.13;;;;;;;21.85;59.77;99289.91;5083714;28;20027;-67
2021/07/11 17:34:37;;;;;;;1.65;1.55;;;;;;;21.82;59.74;99274.84;5083693;28;20028;-67
2021/07/11 17:37:03;;;;;;;1.52;0.95;;;;;;;21.78;59.18;99277.78;5083576;28;20021;-67
2021/07/11 17:39:28;;;;;;;2.08;1.10;;;;;;;21.75;58.29;99261.88;5083652;28;20175;-67
2021/07/11 17:41:54;;;;;;;0.98;0.93;;;;;;;21.73;58.73;99263.75;5083830;28;20099;-67
2021/07/11 17:44:19;;;;;;;1.98;1.20;;;;;;;21.66;59.17;99332.00;5083602;28;20337;-67
2021/07/11 17:46:44;;;;;;;1.95;1.30;;;;;;;21.60;58.65;99289.44;5097119;28;20031;-67
2021/07/11 17:49:10;;;;;;;3.53;1.10;;;;;;;21.49;63.08;99276.66;5103819;28;20062;-67
2021/07/11 17:51:35;;;;;;;3.38;1.17;;;;;;;21.41;64.94;99262.78;5103652;28;20040;-67
2021/07/11 17:54:02;;;;;;;1.85;1.08;;;;;;;21.33;66.19;99265.00;5103795;28;20089;-67
2021/07/11 17:56:27;;;;;;;3.08;1.20;;;;;;;21.17;66.92;99286.34;5103502;28;20027;-67
2021/07/11 17:58:52;;;;;;;2.17;0.90;;;;;;;21.10;67.20;99455.41;5103735;28;20020;-67
2021/07/11 18:01:20;;;;;;;1.98;1.13;;;;;;;21.01;68.05;99320.19;5103714;28;20070;-67
2021/07/11 18:03:46;;;;;;;1.90;1.20;;;;;;;20.93;68.34;99303.66;5103696;28;20386;-67
2021/07/11 18:06:11;;;;;;;1.25;1.15;;;;;;;20.86;68.30;99283.50;5103673;28;20326;-67
2021/07/11 18:08:37;;;;;;;2.88;1.40;;;;;;;20.82;70.31;99257.81;5103650;28;20041;-67
2021/07/11 18:11:02;;;;;;;3.10;1.10;;;;;;;20.70;71.48;99237.06;5103644;28;20024;-67
2021/07/11 18:13:28;;;;;;;1.77;1.20;;;;;;;20.64;70.41;99223.97;5100809;28;20077;-67
2021/07/11 18:15:53;;;;;;;2.17;1.15;;;;;;;20.53;72.08;99245.03;5083370;28;20091;-67
2021/07/11 18:18:19;;;;;;;3.58;1.40;;;;;;;20.39;75.77;99342.91;5083206;28;20024;-67
2021/07/11 18:20:46;;;;;;;2.17;1.33;;;;;;;20.25;76.86;99258.00;5084449;28;20033;-67
2021/07/11 18:23:12;;;;;;;3.53;1.50;;;;;;;20.16;77.38;99212.16;5083263;28;20164;-67
2021/07/11 18:25:37;;;;;;;1.63;1.13;;;;;;;20.09;77.97;99232.94;5083983;28;20339;-67
2021/07/11 18:28:03;;;;;;;5.13;1.30;;;;;;;20.07;78.00;101124.00;5086791;28;20017;-67
2021/07/11 18:30:28;;;;;;;2.83;1.20;;;;;;;20.06;77.08;100409.22;5086764;28;20040;-67
2021/07/11 18:32:53;;;;;;;1.40;1.17;;;;;;;19.89;77.73;100197.69;5086723;28;20024;-67
2021/07/11 18:35:19;;;;;;;2.90;1.38;;;;;;;19.81;78.76;100059.94;5086695;28;20331;-67
2021/07/11 18:37:46;;;;;;;3.00;1.33;;;;;;;19.68;79.10;99909.00;5085402;28;20042;-67
2021/07/11 18:40:13;;;;;;;3.42;1.30;;;;;;;19.53;80.13;99856.09;5086579;28;20299;-67
2021/07/11 18:42:39;;;;;;;2.10;1.30;;;;;;;19.38;80.22;99793.44;5086448;28;20032;-67
2021/07/11 18:45:07;;;;;;;3.10;1.42;;;;;;;19.23;80.54;99751.25;5086422;28;20025;-68
2021/07/11 18:47:34;;;;;;;2.65;1.48;;;;;;;19.16;81.08;99723.03;5088235;28;20021;-68
2021/07/11 18:49:59;;;;;;;4.45;1.60;;;;;;;19.10;81.44;99691.22;5106734;28;20405;-68
2021/07/11 18:52:25;;;;;;;2.33;1.45;;;;;;;18.97;83.33;99701.50;5106120;28;20040;-66
2021/07/11 18:54:50;;;;;;;5.95;1.70;;;;;;;18.84;84.24;99640.63;5104812;28;20039;-67
2021/07/11 18:57:16;;;;;;;3.63;1.52;;;;;;;18.72;84.19;99625.06;5091194;28;20091;-67
2021/07/11 18:59:41;;;;;;;2.28;1.27;;;;;;;18.62;84.25;99538.31;5096547;28;20030;-67
2021/07/11 19:02:07;;;;;;;3.80;1.50;;;;;;;18.54;84.00;99537.75;5105514;28;20023;-67
2021/07/11 19:04:32;;;;;;;2.60;1.60;;;;;;;18.54;84.27;99545.75;5097840;28;20020;-67
2021/07/11 19:06:58;;;;;;;1.63;1.33;;;;;;;18.43;84.51;99521.25;5105011;28;20327;-67
2021/07/11 19:09:24;;;;;;;2.83;1.55;;;;;;;18.25;85.35;99488.13;5105359;28;20028;-67
2021/07/11 19:11:49;;;;;;;7.07;1.50;;;;;;;18.06;85.41;99451.53;5105337;28;20308;-67
2021/07/11 19:14:16;;;;;;;8.23;1.58;;;;;;;18.10;85.36;99373.25;5105292;28;20020;-67
2021/07/11 19:16:42;;;;;;;4.30;1.40;;;;;;;18.00;85.04;99345.22;5104699;28;20016;-67
2021/07/11 19:19:08;;;;;;;6.82;3.10;;;;;;;17.93;85.76;99354.34;5104677;28;20015;-67
2021/07/11 19:21:33;;;;;;;4.22;1.80;;;;;;;17.87;86.60;99341.28;5104688;28;20047;-67
2021/07/11 19:23:59;;;;;;;2.50;1.48;;;;;;;17.81;86.66;99322.88;5105113;28;20051;-67
2021/07/11 19:26:24;;;;;;;3.92;1.50;;;;;;;17.70;87.44;99325.94;5105329;28;20028;-67
2021/07/11 19:28:50;;;;;;;7.90;1.70;;;;;;;17.60;87.66;99342.28;5104379;28;20231;-67
2021/07/11 19:31:15;;;;;;;5.28;1.67;;;;;;;17.52;87.71;99339.06;5089073;28;20020;-67
2021/07/11 19:33:41;;;;;;;4.30;1.73;;;;;;;17.43;88.00;99326.91;5103627;28;20250;-67
2021/07/11 19:36:07;;;;;;;4.20;1.30;;;;;;;17.35;87.93;99320.09;5084573;28;20021;-67
2021/07/11 19:38:32;;;;;;;3.45;1.63;;;;;;;17.25;88.39;99311.59;5086548;28;20036;-67
2021/07/11 19:40:59;;;;;;;4.63;1.90;;;;;;;17.17;88.64;99287.03;5093550;28;20035;-67
2021/07/11 19:43:25;;;;;;;6.38;1.70;;;;;;;17.11;88.73;99293.44;5093157;28;20031;-67
2021/07/11 19:45:51;;;;;;;3.40;1.50;;;;;;;17.17;88.52;99293.22;5083942;28;20025;-67
2021/07/11 19:48:16;;;;;;;1.77;1.55;;;;;;;17.24;87.96;99297.41;5084306;28;20008;-67
2021/07/11 19:50:44;;;;;;;5.72;1.92;;;;;;;17.17;88.03;99292.34;5084165;28;20024;-67
2021/07/11 19:53:10;;;;;;;1.92;1.60;;;;;;;16.95;87.98;99262.97;5094364;28;20086;-67
2021/07/11 19:55:35;;;;;;;4.93;1.90;;;;;;;16.82;88.81;99256.34;5099522;28;20323;-67
2021/07/11 19:58:00;;;;;;;3.75;1.65;;;;;;;16.76;88.68;99269.84;5084062;28;20307;-67
2021/07/11 20:00:28;;;;;;;4.70;1.48;;;;;;;16.65;89.38;99261.34;5095182;28;20028;-67
2021/07/11 20:02:55;;;;;;;2.80;1.55;;;;;;;16.78;89.04;99268.03;5099891;28;20017;-67
2021/07/11 20:05:21;;;;;;;3.10;1.80;;;;;;;16.63;89.07;99263.22;5084001;28;20032;-67
2021/07/11 20:07:47;;;;;;;7.32;1.65;;;;;;;16.56;89.16;99267.00;5092845;28;20092;-67
2021/07/11 20:10:16;;;;;;;3.03;1.80;;;;;;;16.41;89.40;99250.66;5083814;28;20052;-67
2021/07/11 20:12:41;;;;;;;4.53;2.10;;;;;;;16.38;89.64;99256.94;5083403;28;20042;-67
2021/07/11 20:15:09;;;;;;;2.83;1.70;;;;;;;16.47;89.14;99259.34;5083844;28;20315;-67
2021/07/11 20:17:34;;;;;;;3.75;1.80;;;;;;;16.29;89.20;99246.59;5083970;28;20036;-67
2021/07/11 20:20:00;;;;;;;5.43;1.80;;;;;;;16.35;89.90;99243.75;5083706;28;20020;-67
2021/07/11 20:22:26;;;;;;;2.95;1.90;;;;;;;16.21;89.16;99737.44;5083663;28;20035;-67
2021/07/11 20:24:51;;;;;;;7.93;2.42;;;;;;;16.08;89.79;99652.78;5097014;28;20118;-67
2021/07/11 20:27:17;;;;;;;4.97;1.50;;;;;;;16.01;90.01;99789.28;5102518;28;20097;-67
2021/07/11 20:29:45;;;;;;;3.70;1.80;;;;;;;16.08;90.25;99730.69;5103838;28;20020;-67